createdAt,value
2017-12-12T00:01:27.644Z,95032.05
2017-12-12T00:03:55.390Z,95011.47
2017-12-12T00:06:22.866Z,95024.52
2017-12-12T00:08:50.279Z,95014.50
2017-12-12T00:11:17.683Z,94994.14
2017-12-12T00:13:45.207Z,95023.01
2017-12-12T00:16:12.620Z,95022.80
2017-12-12T00:18:40.076Z,95006.21
2017-12-12T00:21:07.759Z,94992.63
2017-12-12T00:23:35.144Z,95009.61
2017-12-12T00:26:03.461Z,95012.05
2017-12-12T00:28:31.255Z,95008.47
2017-12-12T00:30:58.888Z,95009.61
2017-12-12T00:33:26.857Z,95024.34
2017-12-12T00:35:55.903Z,95012.24
2017-12-12T00:38:23.339Z,94997.55
2017-12-12T00:40:50.951Z,94976.40
2017-12-12T00:43:18.420Z,94987.35
2017-12-12T00:45:45.822Z,94999.41
2017-12-12T00:48:13.547Z,95000.94
2017-12-12T00:50:41.530Z,95009.98
2017-12-12T00:53:09.227Z,95011.88
2017-12-12T00:55:36.669Z,95016.96
2017-12-12T00:58:04.129Z,94998.66
2017-12-12T01:00:31.586Z,95007.70
2017-12-12T01:02:59.052Z,95016.77
2017-12-12T01:05:26.580Z,94994.70
2017-12-12T01:07:55.394Z,95008.48
2017-12-12T01:10:24.724Z,95006.01
2017-12-12T01:12:52.200Z,94999.22
2017-12-12T01:15:19.945Z,94994.14
2017-12-12T01:17:47.710Z,94983.00
2017-12-12T01:20:15.163Z,94979.59
2017-12-12T01:22:43.235Z,95003.74
2017-12-12T01:25:10.647Z,94989.79
2017-12-12T01:27:38.211Z,94990.94
2017-12-12T01:30:06.547Z,94989.78
2017-12-12T01:32:33.959Z,94980.73
2017-12-12T01:35:01.404Z,94984.71
2017-12-12T01:37:28.803Z,94987.55
2017-12-12T01:39:56.235Z,94978.30
2017-12-12T01:42:23.613Z,94989.44
2017-12-12T01:44:52.664Z,94993.95
2017-12-12T01:47:20.034Z,94983.95
2017-12-12T01:49:48.304Z,94982.25
2017-12-12T01:52:15.964Z,94976.39
2017-12-12T01:54:43.578Z,94980.55
2017-12-12T01:57:11.197Z,94976.59
2017-12-12T01:59:38.701Z,94968.29
2017-12-12T02:02:06.164Z,94966.42
2017-12-12T02:04:34.412Z,95000.72
2017-12-12T02:07:01.894Z,94983.94
2017-12-12T02:09:29.305Z,94977.69
2017-12-12T02:11:56.708Z,94975.81
2017-12-12T02:14:25.817Z,94987.48
2017-12-12T02:16:53.365Z,94984.66
2017-12-12T02:19:20.743Z,94977.67
2017-12-12T02:21:49.048Z,94965.63
2017-12-12T02:24:16.556Z,94980.50
2017-12-12T02:26:43.957Z,94978.28
2017-12-12T02:29:11.343Z,94997.31
2017-12-12T02:31:39.141Z,94989.75
2017-12-12T02:34:06.667Z,94979.95
2017-12-12T02:36:34.110Z,95004.30
2017-12-12T02:39:01.622Z,94986.00
2017-12-12T02:41:29.098Z,94981.47
2017-12-12T02:43:56.594Z,94969.03
2017-12-12T02:46:24.306Z,94978.47
2017-12-12T02:48:51.873Z,94997.91
2017-12-12T02:51:19.411Z,94972.24
2017-12-12T02:53:47.682Z,94969.98
2017-12-12T02:56:15.115Z,94983.38
2017-12-12T02:58:42.530Z,94969.98
2017-12-12T03:01:09.905Z,94974.87
2017-12-12T03:03:37.513Z,94972.42
2017-12-12T03:06:06.250Z,94978.47
2017-12-12T03:08:33.611Z,94978.66
2017-12-12T03:11:01.139Z,94970.55
2017-12-12T03:13:28.544Z,94972.25
2017-12-12T03:15:56.987Z,94972.42
2017-12-12T03:18:24.435Z,94953.38
2017-12-12T03:20:51.864Z,94956.58
2017-12-12T03:23:20.252Z,94974.30
2017-12-12T03:25:47.677Z,94970.55
2017-12-12T03:28:15.110Z,94978.28
2017-12-12T03:30:42.564Z,94970.93
2017-12-12T03:33:09.924Z,94988.85
2017-12-12T03:35:37.373Z,94990.90
2017-12-12T03:38:04.807Z,94970.72
2017-12-12T03:40:34.454Z,94972.63
2017-12-12T03:43:01.833Z,94997.70
2017-12-12T03:45:29.301Z,94996.38
2017-12-12T03:47:56.714Z,94984.52
2017-12-12T03:50:25.070Z,94983.76
2017-12-12T03:52:52.663Z,94989.59
2017-12-12T03:55:20.029Z,94998.11
2017-12-12T03:57:47.468Z,95001.09
2017-12-12T04:00:15.731Z,94999.43
2017-12-12T04:02:43.219Z,95014.89
2017-12-12T04:05:10.575Z,95016.97
2017-12-12T04:07:38.183Z,95004.53
2017-12-12T04:10:05.778Z,95017.17
2017-12-12T04:12:33.173Z,95043.58
2017-12-12T04:15:00.662Z,95020.38
2017-12-12T04:17:28.064Z,95012.98
2017-12-12T04:19:55.434Z,95035.45
2017-12-12T04:22:23.041Z,95040.35
2017-12-12T04:24:50.607Z,95036.95
2017-12-12T04:27:18.064Z,95025.63
2017-12-12T04:29:45.638Z,95051.09
2017-12-12T04:32:13.184Z,95034.48
2017-12-12T04:34:40.670Z,95032.77
2017-12-12T04:37:08.079Z,95031.84
2017-12-12T04:39:35.535Z,95049.00
2017-12-12T04:42:03.019Z,95043.89
2017-12-12T04:44:30.496Z,95031.05
2017-12-12T04:46:57.984Z,95054.29
2017-12-12T04:49:25.376Z,95040.66
2017-12-12T04:51:52.841Z,95049.74
2017-12-12T04:54:20.379Z,95041.43
2017-12-12T04:56:47.811Z,95049.72
2017-12-12T04:59:15.301Z,95059.92
2017-12-12T05:01:42.699Z,95047.45
2017-12-12T05:04:10.148Z,95063.68
2017-12-12T05:06:37.654Z,95041.59
2017-12-12T05:09:05.101Z,95066.36
2017-12-12T05:11:32.473Z,95053.87
2017-12-12T05:13:59.929Z,95080.11
2017-12-12T05:16:27.449Z,95076.70
2017-12-12T05:18:54.936Z,95078.23
2017-12-12T05:21:22.776Z,95077.85
2017-12-12T05:23:50.189Z,95054.05
2017-12-12T05:26:17.586Z,95062.16
2017-12-12T05:28:45.063Z,95073.66
2017-12-12T05:31:12.533Z,95078.94
2017-12-12T05:33:39.967Z,95090.88
2017-12-12T05:36:07.419Z,95086.88
2017-12-12T05:38:34.856Z,95095.02
2017-12-12T05:41:02.256Z,95090.28
2017-12-12T05:43:29.740Z,95095.20
2017-12-12T05:45:57.115Z,95097.98
2017-12-12T05:48:24.535Z,95097.61
2017-12-12T05:50:51.971Z,95091.76
2017-12-12T05:53:19.407Z,95085.70
2017-12-12T05:55:46.885Z,95066.45
2017-12-12T05:58:14.375Z,95075.67
2017-12-12T06:00:41.771Z,95078.14
2017-12-12T06:03:10.369Z,95110.25
2017-12-12T06:05:37.805Z,95122.53
2017-12-12T06:08:05.199Z,95067.52
2017-12-12T06:10:32.859Z,95103.59
2017-12-12T06:13:00.333Z,95065.99
2017-12-12T06:15:27.744Z,95070.52
2017-12-12T06:17:55.273Z,95087.51
2017-12-12T06:20:22.819Z,95085.63
2017-12-12T06:22:50.272Z,95080.51
2017-12-12T06:25:18.520Z,95099.13
2017-12-12T06:27:48.196Z,95088.89
2017-12-12T06:30:15.586Z,95104.39
2017-12-12T06:32:43.581Z,95101.02
2017-12-12T06:35:11.126Z,95078.63
2017-12-12T06:37:38.571Z,95092.25
2017-12-12T06:40:05.938Z,95122.06
2017-12-12T06:42:33.380Z,95103.89
2017-12-12T06:45:01.096Z,95096.06
2017-12-12T06:47:28.519Z,95102.39
2017-12-12T06:49:56.050Z,95102.53
2017-12-12T06:52:23.537Z,95099.27
2017-12-12T06:54:52.272Z,95086.13
2017-12-12T06:57:19.729Z,95099.49
2017-12-12T06:59:47.179Z,95115.78
2017-12-12T07:02:14.743Z,95100.89
2017-12-12T07:04:42.177Z,95113.82
2017-12-12T07:07:10.120Z,95112.05
2017-12-12T07:09:37.754Z,95098.45
2017-12-12T07:12:05.223Z,95111.64
2017-12-12T07:14:32.702Z,95139.42
2017-12-12T07:17:00.168Z,95127.84
2017-12-12T07:19:27.712Z,95124.80
2017-12-12T07:21:55.385Z,95142.81
2017-12-12T07:24:22.966Z,95135.94
2017-12-12T07:26:50.745Z,95125.88
2017-12-12T07:29:18.839Z,95136.28
2017-12-12T07:31:46.827Z,95142.83
2017-12-12T07:34:15.533Z,95144.89
2017-12-12T07:36:43.835Z,95148.52
2017-12-12T07:39:12.353Z,95145.58
2017-12-12T07:41:39.930Z,95147.33
2017-12-12T07:44:07.504Z,95143.20
2017-12-12T07:46:36.196Z,95158.95
2017-12-12T07:49:03.839Z,95126.25
2017-12-12T07:51:31.461Z,95152.11
2017-12-12T07:53:58.921Z,95151.13
2017-12-12T07:56:26.439Z,95137.23
2017-12-12T07:58:54.083Z,95168.63
2017-12-12T08:01:21.815Z,95138.61
2017-12-12T08:03:50.763Z,95131.02
2017-12-12T08:06:18.270Z,95151.07
2017-12-12T08:08:47.007Z,95164.08
2017-12-12T08:11:15.343Z,95146.20
2017-12-12T08:13:43.512Z,95158.29
2017-12-12T08:16:11.268Z,95133.66
2017-12-12T08:18:41.728Z,95142.40
2017-12-12T08:21:09.296Z,95148.73
2017-12-12T08:23:36.936Z,95175.39
2017-12-12T08:26:04.562Z,95140.42
2017-12-12T08:28:32.389Z,95165.89
2017-12-12T08:33:33.393Z,95170.09
2017-12-12T08:36:01.081Z,95173.88
2017-12-12T08:38:28.833Z,95158.44
2017-12-12T08:40:56.516Z,95170.93
2017-12-12T08:43:26.515Z,95172.98
2017-12-12T08:45:55.340Z,95177.42
2017-12-12T08:48:24.202Z,95176.17
2017-12-12T08:50:52.099Z,95168.16
2017-12-12T08:53:21.602Z,95183.22
2017-12-12T08:55:49.388Z,95182.48
2017-12-12T08:58:17.149Z,95179.22
2017-12-12T09:00:47.534Z,95194.86
2017-12-12T09:03:15.062Z,95154.92
2017-12-12T09:05:43.575Z,95168.35
2017-12-12T09:08:11.069Z,95176.58
2017-12-12T09:10:39.092Z,95170.98
2017-12-12T09:13:07.864Z,95140.58
2017-12-12T09:15:35.913Z,95146.30
2017-12-12T09:18:04.502Z,95139.65
2017-12-12T09:20:32.329Z,95148.87
2017-12-12T09:22:59.874Z,95175.94
2017-12-12T09:25:27.530Z,95169.46
2017-12-12T09:27:55.035Z,95141.82
2017-12-12T09:30:22.849Z,95157.77
2017-12-12T09:32:50.440Z,95166.50
2017-12-12T09:35:19.983Z,95164.38
2017-12-12T09:37:47.530Z,95141.38
2017-12-12T09:40:15.285Z,95142.08
2017-12-12T09:42:43.218Z,95141.75
2017-12-12T09:45:15.442Z,95139.63
2017-12-12T09:47:42.878Z,95130.59
2017-12-12T09:50:10.458Z,95128.34
2017-12-12T09:52:38.534Z,95133.16
2017-12-12T09:55:06.335Z,95125.80
2017-12-12T09:57:33.994Z,95120.00
2017-12-12T10:00:03.502Z,95127.95
2017-12-12T10:02:31.032Z,95133.34
2017-12-12T10:04:58.466Z,95121.66
2017-12-12T10:07:25.947Z,95107.17
2017-12-12T10:09:53.438Z,95118.58
2017-12-12T10:12:20.852Z,95128.20
2017-12-12T10:14:50.477Z,95102.56
2017-12-12T10:17:17.908Z,95093.91
2017-12-12T10:19:45.414Z,95106.75
2017-12-12T10:22:13.112Z,95110.91
2017-12-12T10:24:40.497Z,95093.68
2017-12-12T10:27:07.945Z,95104.52
2017-12-12T10:29:35.330Z,95105.14
2017-12-12T10:32:02.732Z,95095.51
2017-12-12T10:34:30.234Z,95090.33
2017-12-12T10:36:57.886Z,95104.86
2017-12-12T10:39:25.361Z,95096.25
2017-12-12T10:41:52.993Z,95079.67
2017-12-12T10:44:20.583Z,95087.55
2017-12-12T10:46:48.087Z,95087.21
2017-12-12T10:49:15.748Z,95087.02
2017-12-12T10:51:45.543Z,95076.74
2017-12-12T10:54:13.106Z,95077.19
2017-12-12T10:56:40.591Z,95087.11
2017-12-12T10:59:07.994Z,95088.98
2017-12-12T11:01:35.566Z,95082.84
2017-12-12T11:04:02.990Z,95074.41
2017-12-12T11:06:30.656Z,95079.77
2017-12-12T11:08:58.126Z,95088.87
2017-12-12T11:11:26.156Z,95078.41
2017-12-12T11:13:54.554Z,95075.56
2017-12-12T11:16:22.189Z,95071.53
2017-12-12T11:18:49.729Z,95071.02
2017-12-12T11:21:17.175Z,95069.33
2017-12-12T11:23:46.141Z,95072.14
2017-12-12T11:26:14.939Z,95070.66
2017-12-12T11:29:00.713Z,95075.22
2017-12-12T11:31:28.349Z,95086.80
2017-12-12T11:33:56.175Z,95080.05
2017-12-12T11:36:23.808Z,95080.35
2017-12-12T11:38:51.776Z,95078.31
2017-12-12T11:41:19.717Z,95075.17
2017-12-12T11:43:47.552Z,95063.08
2017-12-12T11:46:15.786Z,95062.75
2017-12-12T11:48:43.697Z,95052.05
2017-12-12T11:51:12.075Z,95062.57
2017-12-12T11:53:40.473Z,95071.42
2017-12-12T11:56:08.388Z,95069.77
2017-12-12T11:58:35.872Z,95067.90
2017-12-12T12:01:17.170Z,95066.51
2017-12-12T12:03:45.166Z,95070.89
2017-12-12T12:06:12.886Z,95068.08
2017-12-12T12:08:40.664Z,95062.19
2017-12-12T12:11:08.644Z,95061.72
2017-12-12T12:13:36.602Z,95053.41
2017-12-12T12:18:42.054Z,95055.83
2017-12-12T12:21:10.402Z,95054.31
2017-12-12T12:23:39.488Z,95057.48
2017-12-12T12:26:07.356Z,95054.19
2017-12-12T12:28:36.178Z,95054.63
2017-12-12T12:31:06.262Z,95056.59
2017-12-12T12:33:34.764Z,95058.14
2017-12-12T12:36:02.631Z,95055.78
2017-12-12T12:38:30.377Z,95048.27
2017-12-12T12:40:57.942Z,95058.08
2017-12-12T12:43:25.686Z,95061.95
2017-12-12T12:45:53.443Z,95062.75
2017-12-12T12:48:21.246Z,95062.78
2017-12-12T12:50:49.375Z,95076.70
2017-12-12T12:53:17.287Z,95073.30
2017-12-12T12:55:44.954Z,95069.25
2017-12-12T12:58:12.756Z,95069.09
2017-12-12T13:00:40.688Z,95071.22
2017-12-12T13:03:08.145Z,95067.86
2017-12-12T13:05:35.584Z,95067.02
2017-12-12T13:08:03.011Z,95069.09
2017-12-12T13:10:30.473Z,95074.17
2017-12-12T13:12:57.871Z,95076.80
2017-12-12T13:15:25.395Z,95072.65
2017-12-12T13:17:52.897Z,95068.44
2017-12-12T13:20:20.379Z,95071.79
2017-12-12T13:22:47.990Z,95078.48
2017-12-12T13:25:15.734Z,95082.95
2017-12-12T13:27:44.267Z,95081.01
2017-12-12T13:30:11.899Z,95080.51
2017-12-12T13:32:39.349Z,95080.13
2017-12-12T13:35:06.875Z,95082.29
2017-12-12T13:37:34.352Z,95076.89
2017-12-12T13:40:01.835Z,95074.06
2017-12-12T13:42:29.489Z,95070.48
2017-12-12T13:44:58.052Z,95071.86
2017-12-12T13:47:25.564Z,95071.36
2017-12-12T13:49:53.425Z,95070.40
2017-12-12T13:52:21.020Z,95066.77
2017-12-12T13:54:48.397Z,95076.73
2017-12-12T13:57:15.892Z,95077.69
2017-12-12T13:59:44.305Z,95085.48
2017-12-12T14:02:11.973Z,95082.12
2017-12-12T14:04:39.400Z,95062.63
2017-12-12T14:07:06.939Z,95074.95
2017-12-12T14:09:34.417Z,95082.48
2017-12-12T14:12:01.819Z,95080.05
2017-12-12T14:14:29.222Z,95085.62
2017-12-12T14:16:56.715Z,95084.84
2017-12-12T14:19:24.188Z,95081.28
2017-12-12T14:21:51.619Z,95082.19
2017-12-12T14:24:19.519Z,95086.77
2017-12-12T14:26:48.500Z,95084.00
2017-12-12T14:29:15.963Z,95091.42
2017-12-12T14:31:43.578Z,95087.84
2017-12-12T14:34:11.382Z,95087.30
2017-12-12T14:36:38.979Z,95089.59
2017-12-12T14:39:06.420Z,95092.77
2017-12-12T14:41:34.681Z,95092.14
2017-12-12T14:44:02.115Z,95093.75
2017-12-12T14:46:29.501Z,95092.19
2017-12-12T14:48:56.933Z,95090.26
2017-12-12T14:51:24.452Z,95095.28
2017-12-12T14:53:52.326Z,95095.48
2017-12-12T14:56:19.947Z,95096.97
2017-12-12T14:58:47.525Z,95090.50
2017-12-12T15:01:15.428Z,95095.04
2017-12-12T15:03:43.345Z,95093.27
2017-12-12T15:06:11.007Z,95098.30
2017-12-12T15:08:38.458Z,95107.20
2017-12-12T15:11:06.027Z,95109.58
2017-12-12T15:13:33.507Z,95103.52
2017-12-12T15:16:00.940Z,95099.38
2017-12-12T15:18:28.644Z,95106.98
2017-12-12T15:20:56.123Z,95107.50
2017-12-12T15:23:23.757Z,95103.23
2017-12-12T15:25:51.485Z,95106.33
2017-12-12T15:28:18.898Z,95102.17
2017-12-12T15:30:46.566Z,95101.01
2017-12-12T15:33:14.042Z,95110.19
2017-12-12T15:35:44.803Z,95117.45
2017-12-12T15:38:12.337Z,95122.73
2017-12-12T15:40:39.742Z,95121.12
2017-12-12T15:43:07.302Z,95116.91
2017-12-12T15:45:34.769Z,95129.88
2017-12-12T15:48:02.204Z,95127.55
2017-12-12T15:50:29.634Z,95126.03
2017-12-12T15:52:57.775Z,95115.46
2017-12-12T15:55:25.303Z,95119.00
2017-12-12T15:57:52.740Z,95133.42
2017-12-12T16:00:20.208Z,95133.82
2017-12-12T16:02:47.699Z,95124.08
2017-12-12T16:05:15.433Z,95124.06
2017-12-12T16:07:42.964Z,95122.47
2017-12-12T16:10:10.364Z,95122.37
2017-12-12T16:12:37.792Z,95123.55
2017-12-12T16:15:05.449Z,95112.35
2017-12-12T16:17:32.899Z,95127.45
2017-12-12T16:20:00.338Z,95128.52
2017-12-12T16:22:27.710Z,95128.94
2017-12-12T16:24:55.188Z,95122.48
2017-12-12T16:27:22.827Z,95120.91
2017-12-12T16:29:50.343Z,95121.35
2017-12-12T16:32:17.827Z,95122.09
2017-12-12T16:34:45.455Z,95125.17
2017-12-12T16:37:14.176Z,95124.28
2017-12-12T16:39:41.596Z,95119.09
2017-12-12T16:42:09.153Z,95119.71
2017-12-12T16:44:36.901Z,95122.50
2017-12-12T16:47:04.514Z,95136.48
2017-12-12T16:49:31.942Z,95136.19
2017-12-12T16:51:59.379Z,95127.84
2017-12-12T16:54:26.794Z,95132.26
2017-12-12T16:56:54.216Z,95136.44
2017-12-12T16:59:23.161Z,95128.52
2017-12-12T17:01:51.031Z,95127.19
2017-12-12T17:04:18.463Z,95140.37
2017-12-12T17:06:47.223Z,95137.48
2017-12-12T17:09:15.886Z,95136.19
2017-12-12T17:11:43.258Z,95139.98
2017-12-12T17:14:10.766Z,95145.68
2017-12-12T17:16:38.238Z,95139.59
2017-12-12T17:19:05.967Z,95139.47
2017-12-12T17:21:33.407Z,95139.11
2017-12-12T17:24:00.820Z,95145.95
2017-12-12T17:26:30.485Z,95153.23
2017-12-12T17:28:57.947Z,95151.79
2017-12-12T17:31:25.310Z,95167.12
2017-12-12T17:33:52.787Z,95162.41
2017-12-12T17:36:20.218Z,95162.98
2017-12-12T17:38:47.680Z,95159.94
2017-12-12T17:41:15.095Z,95150.49
2017-12-12T17:43:42.634Z,95151.66
2017-12-12T17:46:10.347Z,95156.58
2017-12-12T17:48:38.105Z,95157.94
2017-12-12T17:51:05.547Z,95146.83
2017-12-12T17:53:32.964Z,95145.32
2017-12-12T17:56:00.385Z,95156.86
2017-12-12T17:58:27.948Z,95156.45
2017-12-12T18:00:55.371Z,95158.05
2017-12-12T18:03:23.058Z,95158.39
2017-12-12T18:05:50.566Z,95162.33
2017-12-12T18:08:17.947Z,95162.27
2017-12-12T18:10:45.404Z,95163.05
2017-12-12T18:13:12.878Z,95180.88
2017-12-12T18:15:40.471Z,95173.49
2017-12-12T18:18:07.853Z,95166.66
2017-12-12T18:20:35.295Z,95170.25
2017-12-12T18:23:02.687Z,95169.69
2017-12-12T18:25:30.123Z,95174.23
2017-12-12T18:27:59.040Z,95179.02
2017-12-12T18:30:26.477Z,95178.76
2017-12-12T18:32:53.972Z,95169.95
2017-12-12T18:35:21.344Z,95167.28
2017-12-12T18:37:48.801Z,95174.16
2017-12-12T18:40:16.170Z,95176.80
2017-12-12T18:42:43.551Z,95176.03
2017-12-12T18:45:10.988Z,95183.85
2017-12-12T18:47:38.394Z,95175.56
2017-12-12T18:50:05.819Z,95180.08
2017-12-12T18:52:33.216Z,95173.30
2017-12-12T18:55:00.660Z,95174.05
2017-12-12T18:57:28.063Z,95185.81
2017-12-12T18:59:55.459Z,95176.75
2017-12-12T19:02:22.895Z,95167.84
2017-12-12T19:04:50.391Z,95173.31
2017-12-12T19:07:17.796Z,95174.05
2017-12-12T19:09:45.174Z,95172.38
2017-12-12T19:12:12.635Z,95168.02
2017-12-12T19:14:40.229Z,95163.86
2017-12-12T19:17:07.832Z,95167.84
2017-12-12T19:19:35.233Z,95170.13
2017-12-12T19:22:02.676Z,95165.20
2017-12-12T19:24:30.129Z,95168.25
2017-12-12T19:26:57.521Z,95168.27
2017-12-12T19:29:24.956Z,95172.81
2017-12-12T19:31:52.396Z,95170.35
2017-12-12T19:34:19.915Z,95165.42
2017-12-12T19:36:47.336Z,95164.32
2017-12-12T19:39:14.928Z,95165.66
2017-12-12T19:41:42.372Z,95169.47
2017-12-12T19:44:09.844Z,95167.95
2017-12-12T19:46:37.233Z,95161.91
2017-12-12T19:49:04.768Z,95165.28
2017-12-12T19:51:32.151Z,95164.27
2017-12-12T19:53:59.577Z,95169.17
2017-12-12T19:56:27.024Z,95168.56
2017-12-12T19:58:54.412Z,95161.55
2017-12-12T20:01:21.861Z,95164.96
2017-12-12T20:03:49.368Z,95162.89
2017-12-12T20:06:16.749Z,95157.02
2017-12-12T20:08:44.220Z,95163.83
2017-12-12T20:11:13.198Z,95170.28
2017-12-12T20:13:40.704Z,95175.59
2017-12-12T20:16:08.138Z,95166.53
2017-12-12T20:18:35.775Z,95166.15
2017-12-12T20:21:03.235Z,95168.63
2017-12-12T20:23:30.846Z,95169.97
2017-12-12T20:25:58.353Z,95168.09
2017-12-12T20:28:26.179Z,95168.08
2017-12-12T20:30:53.572Z,95157.09
2017-12-12T20:33:21.010Z,95156.55
2017-12-12T20:35:48.393Z,95166.38
2017-12-12T20:38:15.887Z,95163.17
2017-12-12T20:40:43.290Z,95159.97
2017-12-12T20:43:10.884Z,95162.42
2017-12-12T20:45:38.505Z,95159.59
2017-12-12T20:48:05.918Z,95157.50
2017-12-12T20:50:33.480Z,95150.88
2017-12-12T20:53:01.001Z,95162.47
2017-12-12T20:55:28.478Z,95171.93
2017-12-12T20:57:55.962Z,95163.04
2017-12-12T21:00:23.525Z,95160.77
2017-12-12T21:02:51.022Z,95165.71
2017-12-12T21:05:18.395Z,95164.38
2017-12-12T21:07:46.079Z,95162.13
2017-12-12T21:10:13.597Z,95162.33
2017-12-12T21:12:41.025Z,95159.30
2017-12-12T21:15:08.492Z,95161.40
2017-12-12T21:17:35.964Z,95163.29
2017-12-12T21:20:03.370Z,95165.22
2017-12-12T21:22:30.939Z,95168.05
2017-12-12T21:24:58.407Z,95165.23
2017-12-12T21:27:25.903Z,95179.83
2017-12-12T21:29:53.457Z,95175.84
2017-12-12T21:32:20.894Z,95175.47
2017-12-12T21:34:48.272Z,95179.66
2017-12-12T21:37:15.722Z,95178.51
2017-12-12T21:39:43.119Z,95181.75
2017-12-12T21:42:10.792Z,95172.09
2017-12-12T21:44:38.205Z,95175.53
2017-12-12T21:47:05.686Z,95177.23
2017-12-12T21:49:33.122Z,95176.29
2017-12-12T21:52:00.694Z,95183.11
2017-12-12T21:54:28.128Z,95175.36
2017-12-12T21:56:55.523Z,95174.21
2017-12-12T21:59:23.195Z,95179.72
2017-12-12T22:01:50.749Z,95172.93
2017-12-12T22:04:18.199Z,95171.95
2017-12-12T22:06:45.587Z,95162.88
2017-12-12T22:09:12.982Z,95171.41
2017-12-12T22:11:40.573Z,95168.41
2017-12-12T22:14:08.010Z,95166.48
2017-12-12T22:16:35.404Z,95173.51
2017-12-12T22:19:02.839Z,95169.03
2017-12-12T22:21:30.297Z,95156.19
2017-12-12T22:23:57.760Z,95162.81
2017-12-12T22:26:25.281Z,95168.71
2017-12-12T22:28:52.841Z,95162.83
2017-12-12T22:31:20.222Z,95166.60
2017-12-12T22:33:47.660Z,95164.73
2017-12-12T22:36:15.108Z,95161.87
2017-12-12T22:38:42.655Z,95152.78
2017-12-12T22:41:10.281Z,95152.61
2017-12-12T22:43:37.744Z,95156.77
2017-12-12T22:46:05.215Z,95162.28
2017-12-12T22:48:32.685Z,95154.33
2017-12-12T22:51:00.113Z,95160.40
2017-12-12T22:53:27.570Z,95148.27
2017-12-12T22:55:55.040Z,95148.65
2017-12-12T22:58:22.581Z,95152.63
2017-12-12T23:00:49.990Z,95150.18
2017-12-12T23:03:17.446Z,95153.56
2017-12-12T23:05:44.867Z,95152.84
2017-12-12T23:08:12.580Z,95150.41
2017-12-12T23:10:40.031Z,95156.82
2017-12-12T23:13:07.435Z,95152.47
2017-12-12T23:15:34.865Z,95152.47
2017-12-12T23:18:02.368Z,95158.37
2017-12-12T23:20:29.857Z,95157.22
2017-12-12T23:22:57.293Z,95153.84
2017-12-12T23:25:24.760Z,95162.56
2017-12-12T23:27:52.132Z,95155.94
2017-12-12T23:30:19.540Z,95147.23
2017-12-12T23:32:47.089Z,95151.02
2017-12-12T23:35:14.558Z,95150.81
2017-12-12T23:37:41.988Z,95153.46
2017-12-12T23:40:09.404Z,95150.47
2017-12-12T23:42:36.849Z,95151.03
2017-12-12T23:45:04.260Z,95146.30
2017-12-12T23:47:31.688Z,95144.80
2017-12-12T23:49:59.091Z,95148.59
2017-12-12T23:52:26.527Z,95140.83
2017-12-12T23:54:53.928Z,95140.06
2017-12-12T23:57:21.329Z,95145.67
2017-12-12T23:59:48.862Z,95140.44
